createdAt,value
2022-09-20T00:02:36.322Z,2.80
2022-09-20T00:05:23.714Z,2.65
2022-09-20T00:08:16.933Z,3.67
2022-09-20T00:11:07.062Z,3.38
2022-09-20T00:13:56.753Z,3.58
2022-09-20T00:16:44.653Z,4.00
2022-09-20T00:19:32.201Z,4.00
2022-09-20T00:22:19.732Z,3.83
2022-09-20T00:25:07.975Z,4.10
2022-09-20T00:27:55.454Z,3.92
2022-09-20T00:30:42.862Z,3.22
2022-09-20T00:33:51.689Z,3.53
2022-09-20T00:36:39.057Z,3.88
2022-09-20T00:39:26.639Z,3.63
2022-09-20T00:42:15.032Z,3.90
2022-09-20T00:45:08.351Z,3.58
2022-09-20T00:48:12.451Z,3.95
2022-09-20T00:51:10.600Z,3.88
2022-09-20T00:54:03.952Z,3.72
2022-09-20T00:56:51.866Z,4.13
2022-09-20T00:59:43.557Z,3.92
2022-09-20T01:02:33.518Z,4.03
2022-09-20T01:05:21.310Z,3.90
2022-09-20T01:08:10.565Z,4.43
2022-09-20T01:10:57.889Z,4.20
2022-09-20T01:13:45.285Z,4.30
2022-09-20T01:16:33.385Z,4.30
2022-09-20T01:19:57.721Z,5.70
2022-09-20T01:22:58.158Z,5.13
2022-09-20T01:26:30.333Z,5.60
2022-09-20T01:29:44.227Z,5.25
2022-09-20T01:33:06.489Z,5.75
2022-09-20T01:35:55.261Z,4.65
2022-09-20T01:39:05.988Z,6.10
2022-09-20T01:42:03.708Z,5.43
2022-09-20T01:44:56.996Z,7.13
2022-09-20T01:48:01.582Z,6.88
2022-09-20T01:51:10.100Z,6.22
2022-09-20T01:54:21.593Z,7.18
2022-09-20T01:57:27.706Z,7.53
2022-09-20T02:00:27.327Z,7.40
2022-09-20T02:03:14.588Z,8.55
2022-09-20T02:06:13.904Z,8.73
2022-09-20T02:09:13.567Z,9.55
2022-09-20T02:12:07.116Z,8.43
2022-09-20T02:14:57.474Z,9.45
2022-09-20T02:18:00.063Z,9.38
2022-09-20T02:21:09.545Z,9.43
2022-09-20T02:24:11.618Z,8.88
2022-09-20T02:27:24.194Z,10.57
2022-09-20T02:30:50.023Z,8.40
2022-09-20T02:34:07.113Z,8.65
2022-09-20T02:37:26.449Z,9.32
2022-09-20T02:40:23.706Z,9.45
2022-09-20T02:43:14.823Z,10.70
2022-09-20T02:46:22.637Z,11.35
2022-09-20T02:49:22.117Z,16.65
2022-09-20T02:52:30.511Z,12.63
2022-09-20T02:55:26.038Z,10.10
2022-09-20T02:58:38.953Z,10.75
2022-09-20T03:01:36.074Z,10.77
2022-09-20T03:04:44.847Z,18.27
2022-09-20T03:07:54.714Z,18.52
2022-09-20T03:11:03.869Z,13.82
2022-09-20T03:14:11.870Z,13.55
2022-09-20T03:17:19.396Z,11.35
2022-09-20T03:20:13.405Z,12.45
2022-09-20T03:23:18.794Z,12.48
2022-09-20T03:26:26.133Z,11.18
2022-09-20T03:29:31.420Z,10.13
2022-09-20T03:32:33.809Z,9.95
2022-09-20T03:35:50.601Z,10.18
2022-09-20T03:39:11.106Z,10.60
2022-09-20T03:42:23.309Z,12.02
2022-09-20T03:45:34.445Z,14.48
2022-09-20T03:48:40.035Z,14.05
2022-09-20T03:51:36.524Z,15.07
2022-09-20T03:54:52.417Z,16.02
2022-09-20T03:57:52.993Z,12.52
2022-09-20T04:00:52.949Z,11.98
2022-09-20T04:03:53.721Z,12.05
2022-09-20T04:07:05.316Z,10.60
2022-09-20T04:09:55.586Z,10.57
2022-09-20T04:12:54.938Z,12.27
2022-09-20T04:16:04.437Z,10.60
2022-09-20T04:19:17.925Z,10.02
2022-09-20T04:22:07.760Z,11.80
2022-09-20T04:25:04.642Z,11.40
2022-09-20T04:28:04.847Z,11.40
2022-09-20T04:30:56.923Z,10.52
2022-09-20T04:37:02.837Z,9.98
2022-09-20T04:40:02.646Z,10.65
2022-09-20T04:43:35.432Z,11.27
2022-09-20T04:46:56.414Z,9.93
2022-09-20T04:50:08.073Z,11.00
2022-09-20T04:53:22.193Z,11.13
2022-09-20T04:56:22.172Z,11.40
2022-09-20T04:59:11.252Z,11.90
2022-09-20T05:02:37.164Z,12.38
2022-09-20T05:06:15.626Z,12.07
2022-09-20T05:09:28.594Z,11.10
2022-09-20T05:12:38.932Z,10.00
2022-09-20T05:15:53.392Z,10.63
2022-09-20T05:19:07.723Z,10.30
2022-09-20T05:22:32.376Z,11.48
2022-09-20T05:25:51.532Z,10.13
2022-09-20T05:29:10.354Z,10.95
2022-09-20T05:32:18.507Z,9.73
2022-09-20T05:35:24.335Z,9.80
2022-09-20T05:38:25.199Z,10.00
2022-09-20T05:41:32.890Z,10.73
2022-09-20T05:44:23.265Z,9.68
2022-09-20T05:47:39.668Z,10.52
2022-09-20T05:50:39.008Z,9.27
2022-09-20T05:53:55.593Z,9.32
2022-09-20T05:57:15.146Z,26.65
2022-09-20T06:00:02.490Z,16.38
2022-09-20T06:03:18.815Z,14.35
2022-09-20T06:06:38.609Z,14.32
2022-09-20T06:09:58.231Z,10.75
2022-09-20T06:13:09.360Z,17.15
2022-09-20T06:16:10.103Z,10.82
2022-09-20T06:19:11.222Z,10.35
2022-09-20T06:22:21.709Z,13.65
2022-09-20T06:25:08.937Z,11.40
2022-09-20T06:28:00.963Z,12.48
2022-09-20T06:34:10.337Z,7.50
2022-09-20T06:37:41.848Z,16.45
2022-09-20T06:40:56.600Z,8.57
2022-09-20T06:43:43.931Z,7.28
2022-09-20T06:46:34.254Z,8.02
2022-09-20T06:49:22.792Z,6.88
2022-09-20T06:52:15.983Z,7.63
2022-09-20T06:55:07.439Z,8.25
2022-09-20T06:57:55.387Z,9.38
2022-09-20T07:00:42.734Z,7.32
2022-09-20T07:03:31.769Z,9.70
2022-09-20T07:06:19.815Z,5.00
2022-09-20T07:09:07.494Z,6.70
2022-09-20T07:11:56.015Z,6.82
2022-09-20T07:14:44.358Z,6.05
2022-09-20T07:17:32.068Z,8.38
2022-09-20T07:20:21.573Z,6.75
2022-09-20T07:23:09.147Z,6.32
2022-09-20T07:26:01.180Z,5.90
2022-09-20T07:31:36.672Z,4.78
2022-09-20T07:34:24.346Z,7.07
2022-09-20T07:37:11.795Z,5.93
2022-09-20T07:39:59.915Z,6.78
2022-09-20T07:42:47.358Z,5.88
2022-09-20T07:45:38.607Z,5.43
2022-09-20T07:48:30.556Z,6.25
2022-09-20T07:51:17.945Z,6.65
2022-09-20T07:54:05.430Z,5.00
2022-09-20T07:56:52.789Z,5.18
2022-09-20T07:59:40.112Z,4.90
2022-09-20T08:02:27.478Z,3.83
2022-09-20T08:05:14.889Z,5.70
2022-09-20T08:08:02.504Z,3.95
2022-09-20T08:10:49.999Z,7.43
2022-09-20T08:16:48.854Z,6.80
2022-09-20T08:19:37.598Z,7.07
2022-09-20T08:22:24.875Z,4.97
2022-09-20T08:25:12.252Z,4.90
2022-09-20T08:27:59.620Z,5.18
2022-09-20T08:30:46.956Z,2.13
2022-09-20T08:33:34.636Z,3.03
2022-09-20T08:36:25.020Z,4.97
2022-09-20T08:42:33.844Z,2.58
2022-09-20T08:45:40.873Z,7.32
2022-09-20T08:48:33.826Z,6.75
2022-09-20T08:51:23.297Z,4.78
2022-09-20T08:54:13.639Z,2.65
2022-09-20T08:57:13.138Z,1.58
2022-09-20T09:00:02.254Z,5.00
2022-09-20T09:02:56.389Z,2.47
2022-09-20T09:05:46.764Z,4.72
2022-09-20T09:08:38.051Z,2.25
2022-09-20T09:11:25.519Z,5.35
2022-09-20T09:14:51.439Z,3.65
2022-09-20T09:17:38.776Z,1.83
2022-09-20T09:20:26.472Z,3.00
2022-09-20T09:23:25.906Z,1.90
2022-09-20T09:26:21.782Z,3.20
2022-09-20T09:29:16.989Z,1.55
2022-09-20T09:32:29.110Z,1.90
2022-09-20T09:38:21.536Z,2.78
2022-09-20T09:41:30.445Z,4.47
2022-09-20T09:44:25.311Z,1.85
2022-09-20T09:47:27.696Z,4.93
2022-09-20T09:50:30.901Z,4.60
2022-09-20T09:53:24.950Z,3.75
2022-09-20T09:56:31.402Z,2.60
2022-09-20T09:59:30.673Z,1.60
2022-09-20T10:02:55.356Z,5.15
2022-09-20T10:06:04.694Z,3.70
2022-09-20T10:09:06.936Z,4.80
2022-09-20T10:12:06.926Z,2.85
2022-09-20T10:14:57.205Z,1.55
2022-09-20T10:18:22.286Z,1.73
2022-09-20T10:21:39.150Z,5.13
2022-09-20T10:24:51.370Z,5.45
2022-09-20T10:28:11.506Z,4.45
2022-09-20T10:31:26.121Z,1.33
2022-09-20T10:34:22.890Z,1.48
2022-09-20T10:37:33.998Z,3.50
2022-09-20T10:40:59.208Z,5.68
2022-09-20T10:44:01.436Z,1.92
2022-09-20T10:46:57.436Z,1.60
2022-09-20T10:50:12.647Z,3.78
2022-09-20T10:53:15.950Z,1.40
2022-09-20T10:56:43.157Z,1.10
2022-09-20T10:59:52.259Z,2.15
2022-09-20T11:03:04.309Z,2.83
2022-09-20T11:08:51.980Z,1.23
2022-09-20T11:11:43.717Z,1.67
2022-09-20T11:17:35.902Z,2.50
2022-09-20T11:20:29.058Z,3.28
2022-09-20T11:23:21.671Z,1.17
2022-09-20T11:26:20.010Z,1.20
2022-09-20T11:29:41.381Z,1.50
2022-09-20T11:32:43.491Z,1.63
2022-09-20T11:35:34.924Z,1.90
2022-09-20T11:38:40.310Z,4.03
2022-09-20T11:41:29.908Z,4.72
2022-09-20T11:44:19.951Z,1.30
2022-09-20T11:47:13.646Z,2.13
2022-09-20T11:50:41.523Z,2.28
2022-09-20T11:53:41.254Z,2.42
2022-09-20T11:56:34.499Z,6.50
2022-09-20T11:59:34.441Z,1.20
2022-09-20T12:02:35.183Z,1.02
2022-09-20T12:05:27.699Z,4.83
2022-09-20T12:08:27.535Z,3.33
2022-09-20T12:11:16.223Z,3.00
2022-09-20T12:14:18.036Z,2.67
2022-09-20T12:17:06.233Z,2.53
2022-09-20T12:19:53.541Z,5.70
2022-09-20T12:22:40.887Z,4.93
2022-09-20T12:25:37.283Z,4.00
2022-09-20T12:28:34.904Z,2.72
2022-09-20T12:31:22.347Z,3.30
2022-09-20T12:34:13.410Z,1.25
2022-09-20T12:37:00.681Z,1.30
2022-09-20T12:39:56.021Z,1.88
2022-09-20T12:42:43.393Z,1.50
2022-09-20T12:45:31.376Z,1.17
2022-09-20T12:48:19.912Z,2.50
2022-09-20T12:51:50.785Z,2.05
2022-09-20T12:54:52.200Z,2.65
2022-09-20T12:57:40.863Z,2.78
2022-09-20T13:00:40.653Z,2.42
2022-09-20T13:03:32.050Z,2.15
2022-09-20T13:06:19.347Z,3.20
2022-09-20T13:09:09.040Z,3.72
2022-09-20T13:12:01.817Z,1.08
2022-09-20T13:14:49.270Z,1.40
2022-09-20T13:17:37.378Z,1.92
2022-09-20T13:20:31.541Z,4.13
2022-09-20T13:23:26.365Z,5.10
2022-09-20T13:26:15.541Z,3.22
2022-09-20T13:29:05.603Z,1.85
2022-09-20T13:31:53.111Z,2.60
2022-09-20T13:34:40.691Z,2.40
2022-09-20T13:37:28.147Z,1.83
2022-09-20T13:40:28.406Z,4.57
2022-09-20T13:43:37.419Z,2.08
2022-09-20T13:46:31.181Z,3.33
2022-09-20T13:49:24.140Z,2.20
2022-09-20T13:52:22.716Z,0.95
2022-09-20T13:55:25.981Z,4.18
2022-09-20T13:58:37.228Z,0.82
2022-09-20T14:01:28.598Z,0.95
2022-09-20T14:04:21.254Z,1.10
2022-09-20T14:07:08.638Z,1.30
2022-09-20T14:09:56.975Z,1.20
2022-09-20T14:12:45.472Z,1.23
2022-09-20T14:15:41.602Z,1.15
2022-09-20T14:18:28.941Z,2.80
2022-09-20T14:21:26.116Z,4.22
2022-09-20T14:24:13.796Z,5.70
2022-09-20T14:27:03.921Z,1.08
2022-09-20T14:29:55.174Z,16.33
2022-09-20T14:32:50.974Z,1.75
2022-09-20T14:35:46.117Z,0.90
2022-09-20T14:38:33.502Z,1.88
2022-09-20T14:41:35.600Z,1.83
2022-09-20T14:44:33.854Z,1.42
2022-09-20T14:47:54.278Z,1.25
2022-09-20T14:50:47.386Z,2.60
2022-09-20T14:53:37.221Z,0.90
2022-09-20T14:56:34.709Z,0.70
2022-09-20T14:59:28.911Z,1.77
2022-09-20T15:02:16.534Z,2.90
2022-09-20T15:05:04.500Z,1.35
2022-09-20T15:07:55.945Z,2.00
2022-09-20T15:10:44.055Z,0.70
2022-09-20T15:13:31.684Z,0.80
2022-09-20T15:16:21.128Z,2.03
2022-09-20T15:19:09.701Z,0.90
2022-09-20T15:21:57.043Z,1.15
2022-09-20T15:24:44.385Z,1.40
2022-09-20T15:27:32.387Z,1.05
2022-09-20T15:30:20.278Z,0.50
2022-09-20T15:33:07.588Z,0.93
2022-09-20T15:35:54.920Z,1.05
2022-09-20T15:38:42.581Z,1.70
2022-09-20T15:41:31.426Z,1.23
2022-09-20T15:44:19.295Z,0.95
2022-09-20T15:47:07.035Z,1.35
2022-09-20T15:49:54.367Z,0.98
2022-09-20T15:52:42.539Z,2.40
2022-09-20T15:55:29.917Z,1.17
2022-09-20T15:58:18.040Z,1.40
2022-09-20T16:01:07.052Z,1.13
2022-09-20T16:03:56.133Z,0.80
2022-09-20T16:06:45.667Z,2.35
2022-09-20T16:09:35.009Z,0.80
2022-09-20T16:12:24.213Z,1.23
2022-09-20T16:15:11.531Z,1.55
2022-09-20T16:18:17.480Z,1.20
2022-09-20T16:21:14.611Z,2.05
2022-09-20T16:24:02.432Z,2.10
2022-09-20T16:26:50.301Z,2.25
2022-09-20T16:29:37.642Z,2.95
2022-09-20T16:32:25.021Z,1.60
2022-09-20T16:35:13.350Z,3.00
2022-09-20T16:38:00.832Z,1.05
2022-09-20T16:40:51.390Z,1.50
2022-09-20T16:43:38.714Z,1.40
2022-09-20T16:46:29.807Z,1.20
2022-09-20T16:49:17.601Z,1.35
2022-09-20T16:52:06.602Z,1.00
2022-09-20T16:54:54.009Z,0.70
2022-09-20T16:57:41.276Z,1.10
2022-09-20T17:00:28.707Z,0.93
2022-09-20T17:03:16.398Z,1.00
2022-09-20T17:06:05.929Z,1.10
2022-09-20T17:08:58.701Z,1.88
2022-09-20T17:11:49.679Z,1.40
2022-09-20T17:14:37.250Z,1.40
2022-09-20T17:17:24.652Z,1.33
2022-09-20T17:20:13.064Z,1.25
2022-09-20T17:23:00.360Z,1.60
2022-09-20T17:25:48.374Z,1.40
2022-09-20T17:28:37.682Z,1.73
2022-09-20T17:31:34.213Z,2.10
2022-09-20T17:34:22.101Z,1.80
2022-09-20T17:37:10.104Z,2.30
2022-09-20T17:40:02.398Z,2.50
2022-09-20T17:42:49.721Z,2.42
2022-09-20T17:45:37.050Z,2.28
2022-09-20T17:48:24.385Z,1.73
2022-09-20T17:51:12.719Z,2.30
2022-09-20T17:54:00.545Z,3.08
2022-09-20T17:56:50.375Z,2.20
2022-09-20T17:59:37.797Z,1.60
2022-09-20T18:02:25.241Z,2.55
2022-09-20T18:05:13.851Z,2.53
2022-09-20T18:08:01.559Z,2.75
2022-09-20T18:10:57.103Z,4.25
2022-09-20T18:13:44.702Z,5.53
2022-09-20T18:16:33.886Z,4.95
2022-09-20T18:19:22.725Z,4.75
2022-09-20T18:22:10.223Z,4.85
2022-09-20T18:24:57.820Z,4.70
2022-09-20T18:27:46.209Z,4.18
2022-09-20T18:30:34.410Z,4.18
2022-09-20T18:33:21.947Z,3.25
2022-09-20T18:36:09.359Z,2.50
2022-09-20T18:38:58.448Z,2.17
2022-09-20T18:41:38.332Z,4.68
2022-09-20T18:44:07.650Z,2.35
2022-09-20T18:46:38.237Z,7.15
2022-09-20T18:49:09.401Z,2.42
2022-09-20T18:51:40.134Z,2.63
2022-09-20T18:54:11.757Z,2.40
2022-09-20T18:56:41.902Z,6.15
2022-09-20T18:59:24.218Z,4.40
2022-09-20T19:01:54.748Z,2.30
2022-09-20T19:04:51.873Z,2.33
2022-09-20T19:07:28.364Z,1.90
2022-09-20T19:10:37.370Z,1.58
2022-09-20T19:13:40.043Z,2.53
2022-09-20T19:16:31.047Z,2.83
2022-09-20T19:19:19.730Z,2.60
2022-09-20T19:22:08.431Z,26.88
2022-09-20T19:25:01.706Z,6.93
2022-09-20T19:27:29.106Z,2.45
2022-09-20T19:29:56.526Z,3.95
2022-09-20T19:32:26.681Z,2.45
2022-09-20T19:35:02.015Z,2.75
2022-09-20T19:37:38.066Z,3.25
2022-09-20T19:40:23.252Z,2.30
2022-09-20T19:43:03.306Z,2.00
2022-09-20T19:46:27.150Z,9.65
2022-09-20T19:49:16.319Z,2.28
2022-09-20T19:51:45.969Z,1.73
2022-09-20T19:54:15.044Z,8.25
2022-09-20T19:56:49.128Z,2.05
2022-09-20T19:59:17.542Z,1.83
2022-09-20T20:01:44.943Z,2.17
2022-09-20T20:04:12.395Z,17.17
2022-09-20T20:06:48.898Z,2.47
2022-09-20T20:09:27.396Z,2.20
2022-09-20T20:12:22.599Z,4.63
2022-09-20T20:15:28.022Z,9.18
2022-09-20T20:18:03.028Z,2.55
2022-09-20T20:20:49.947Z,2.03
2022-09-20T20:23:58.161Z,2.65
2022-09-20T20:26:26.235Z,2.72
2022-09-20T20:28:53.825Z,4.53
2022-09-20T20:31:21.742Z,8.45
2022-09-20T20:33:49.372Z,8.20
2022-09-20T20:36:17.521Z,6.07
2022-09-20T20:38:50.114Z,9.60
2022-09-20T20:41:19.380Z,16.17
2022-09-20T20:43:49.666Z,8.85
2022-09-20T20:46:18.981Z,10.90
2022-09-20T20:48:47.926Z,5.80
2022-09-20T20:51:21.500Z,7.18
2022-09-20T20:53:51.153Z,6.25
2022-09-20T20:56:29.956Z,11.85
2022-09-20T20:59:01.010Z,8.98
2022-09-20T21:01:33.710Z,7.47
2022-09-20T21:04:01.812Z,5.22
2022-09-20T21:06:32.290Z,6.50
2022-09-20T21:08:59.745Z,6.38
2022-09-20T21:11:28.976Z,8.32
2022-09-20T21:13:58.258Z,10.98
2022-09-20T21:16:35.201Z,6.78
2022-09-20T21:19:03.814Z,7.20
2022-09-20T21:21:33.889Z,6.20
2022-09-20T21:24:03.939Z,5.88
2022-09-20T21:26:32.626Z,7.43
2022-09-20T21:29:01.516Z,9.80
2022-09-20T21:31:31.293Z,5.05
2022-09-20T21:33:58.993Z,5.20
2022-09-20T21:36:28.937Z,6.35
2022-09-20T21:38:56.563Z,9.50
2022-09-20T21:41:31.780Z,8.77
2022-09-20T21:44:00.743Z,17.63
2022-09-20T21:46:30.860Z,16.70
2022-09-20T21:49:00.366Z,9.40
2022-09-20T21:51:31.272Z,5.13
2022-09-20T21:54:01.989Z,4.93
2022-09-20T21:56:32.473Z,4.60
2022-09-20T21:59:02.587Z,4.32
2022-09-20T22:01:35.614Z,5.35
2022-09-20T22:04:10.744Z,4.50
2022-09-20T22:06:40.311Z,4.63
2022-09-20T22:09:13.176Z,5.03
2022-09-20T22:11:43.536Z,3.50
2022-09-20T22:14:11.570Z,3.05
2022-09-20T22:16:41.041Z,2.10
2022-09-20T22:19:10.378Z,2.25
2022-09-20T22:21:40.121Z,2.20
2022-09-20T22:24:10.543Z,15.50
2022-09-20T22:26:46.426Z,2.00
2022-09-20T22:29:14.105Z,2.78
2022-09-20T22:31:45.808Z,1.75
2022-09-20T22:36:45.105Z,11.63
2022-09-20T22:39:13.180Z,1.88
2022-09-20T22:41:41.471Z,1.95
2022-09-20T22:44:09.009Z,1.58
2022-09-20T22:46:37.142Z,1.92
2022-09-20T22:49:05.773Z,1.83
2022-09-20T22:51:33.481Z,5.15
2022-09-20T22:54:05.615Z,3.35
2022-09-20T22:56:33.373Z,3.80
2022-09-20T22:59:05.042Z,10.60
2022-09-20T23:04:08.598Z,2.00
2022-09-20T23:06:44.214Z,4.32
2022-09-20T23:09:13.085Z,11.18
2022-09-20T23:11:43.398Z,4.13
2022-09-20T23:14:13.408Z,2.30
2022-09-20T23:16:41.127Z,3.55
2022-09-20T23:19:09.381Z,1.92
2022-09-20T23:21:38.379Z,4.35
2022-09-20T23:24:08.137Z,1.70
2022-09-20T23:26:36.725Z,2.20
2022-09-20T23:29:06.943Z,4.40
2022-09-20T23:31:36.463Z,1.85
2022-09-20T23:34:06.055Z,2.78
2022-09-20T23:36:35.363Z,2.00
2022-09-20T23:39:02.351Z,1.35
2022-09-20T23:41:29.639Z,1.48
2022-09-20T23:43:56.617Z,2.05
2022-09-20T23:46:25.912Z,2.72
2022-09-20T23:48:53.465Z,2.15
2022-09-20T23:51:23.773Z,1.80
2022-09-20T23:53:51.720Z,2.10
2022-09-20T23:56:19.788Z,2.58
2022-09-20T23:58:48.649Z,2.78
